createdAt,value
2017-09-27T00:01:11.043Z,19.37
2017-09-27T00:03:40.091Z,17.90
2017-09-27T00:06:09.161Z,19.87
2017-09-27T00:08:38.200Z,16.90
2017-09-27T00:11:07.259Z,18.67
2017-09-27T00:13:36.380Z,16.47
2017-09-27T00:16:05.554Z,24.30
2017-09-27T00:18:34.582Z,22.97
2017-09-27T00:21:03.621Z,19.57
2017-09-27T00:23:32.674Z,21.60
2017-09-27T00:26:01.743Z,24.40
2017-09-27T00:28:30.826Z,21.70
2017-09-27T00:30:59.862Z,21.57
2017-09-27T00:33:28.906Z,23.07
2017-09-27T00:35:58.851Z,29.93
2017-09-27T00:38:27.943Z,25.33
2017-09-27T00:40:56.990Z,25.70
2017-09-27T00:43:26.039Z,25.10
2017-09-27T00:45:55.082Z,27.00
2017-09-27T00:48:31.177Z,27.60
2017-09-27T00:51:00.472Z,30.73
2017-09-27T00:53:29.510Z,25.50
2017-09-27T00:55:58.566Z,28.33
2017-09-27T00:58:27.627Z,25.03
2017-09-27T01:00:56.726Z,24.27
2017-09-27T01:03:25.851Z,26.67
2017-09-27T01:05:55.096Z,27.60
2017-09-27T01:08:24.151Z,29.23
2017-09-27T01:10:53.199Z,28.87
2017-09-27T01:13:22.259Z,38.53
2017-09-27T01:15:51.298Z,32.80
2017-09-27T01:18:20.352Z,34.57
2017-09-27T01:20:49.468Z,38.53
2017-09-27T01:23:18.595Z,35.03
2017-09-27T01:25:47.651Z,33.60
2017-09-27T01:28:16.695Z,35.83
2017-09-27T01:30:45.748Z,24.37
2017-09-27T01:33:14.790Z,25.10
2017-09-27T01:35:43.832Z,22.30
2017-09-27T01:38:12.900Z,24.50
2017-09-27T01:40:41.979Z,23.60
2017-09-27T01:43:12.931Z,24.00
2017-09-27T01:45:41.966Z,24.60
2017-09-27T01:48:11.086Z,25.00
2017-09-27T01:50:40.219Z,27.80
2017-09-27T01:53:09.254Z,34.00
2017-09-27T01:55:38.304Z,23.97
2017-09-27T01:58:07.335Z,28.03
2017-09-27T02:00:36.382Z,27.27
2017-09-27T02:03:05.411Z,38.37
2017-09-27T02:05:34.499Z,135.07
2017-09-27T02:08:03.558Z,29.77
2017-09-27T02:10:32.624Z,28.03
2017-09-27T02:13:01.662Z,81.43
2017-09-27T02:15:30.698Z,47.37
2017-09-27T02:17:59.755Z,60.53
2017-09-27T02:20:28.800Z,59.10
2017-09-27T02:22:57.874Z,61.37
2017-09-27T02:25:26.919Z,50.87
2017-09-27T02:27:55.967Z,37.47
2017-09-27T02:30:25.047Z,55.03
2017-09-27T02:32:54.114Z,57.40
2017-09-27T02:35:23.156Z,43.50
2017-09-27T02:37:52.246Z,72.83
2017-09-27T02:40:21.254Z,50.80
2017-09-27T02:42:50.304Z,45.60
2017-09-27T02:45:19.352Z,43.27
2017-09-27T02:47:48.399Z,34.93
2017-09-27T02:50:19.471Z,44.13
2017-09-27T02:52:48.517Z,26.10
2017-09-27T02:55:17.567Z,22.07
2017-09-27T02:57:46.620Z,23.03
2017-09-27T03:00:15.711Z,35.80
2017-09-27T03:02:44.757Z,32.80
2017-09-27T03:05:13.920Z,34.37
2017-09-27T03:07:43.038Z,26.60
2017-09-27T03:10:16.447Z,40.53
2017-09-27T03:12:46.454Z,44.67
2017-09-27T03:15:15.550Z,50.33
2017-09-27T03:17:44.594Z,41.73
2017-09-27T03:20:14.561Z,80.43
2017-09-27T03:22:43.594Z,48.20
2017-09-27T03:25:12.669Z,60.80
2017-09-27T03:27:41.759Z,54.67
2017-09-27T03:30:10.783Z,43.87
2017-09-27T03:32:39.853Z,58.80
2017-09-27T03:35:08.967Z,47.90
2017-09-27T03:37:38.011Z,59.33
2017-09-27T03:40:07.080Z,53.30
2017-09-27T03:42:36.251Z,39.20
2017-09-27T03:45:06.294Z,44.60
2017-09-27T03:47:35.346Z,46.07
2017-09-27T03:50:04.391Z,52.20
2017-09-27T03:52:33.439Z,44.70
2017-09-27T03:55:02.504Z,43.13
2017-09-27T03:57:31.554Z,39.53
2017-09-27T04:00:00.608Z,42.00
2017-09-27T04:02:29.646Z,39.50
2017-09-27T04:04:58.709Z,40.10
2017-09-27T04:07:27.748Z,30.87
2017-09-27T04:09:56.814Z,37.73
2017-09-27T04:12:25.856Z,38.87
2017-09-27T04:14:54.927Z,40.83
2017-09-27T04:17:23.974Z,31.77
2017-09-27T04:19:53.043Z,34.93
2017-09-27T04:22:22.062Z,31.73
2017-09-27T04:24:51.104Z,29.40
2017-09-27T04:27:20.239Z,30.80
2017-09-27T04:29:49.276Z,31.40
2017-09-27T04:32:18.391Z,28.13
2017-09-27T04:34:47.461Z,32.43
2017-09-27T04:37:17.474Z,28.77
2017-09-27T04:39:46.551Z,28.80
2017-09-27T04:42:15.575Z,26.37
2017-09-27T04:44:44.642Z,27.73
2017-09-27T04:47:13.697Z,32.17
2017-09-27T04:49:42.754Z,28.43
2017-09-27T04:52:11.779Z,26.83
2017-09-27T04:54:40.839Z,24.63
2017-09-27T04:57:10.931Z,23.20
2017-09-27T04:59:39.992Z,27.60
2017-09-27T05:02:09.057Z,28.17
2017-09-27T05:04:38.106Z,25.13
2017-09-27T05:07:07.157Z,31.53
2017-09-27T05:09:36.246Z,23.33
2017-09-27T05:12:05.355Z,30.20
2017-09-27T05:14:34.466Z,28.97
2017-09-27T05:17:03.529Z,31.10
2017-09-27T05:19:32.602Z,31.80
2017-09-27T05:22:01.876Z,32.30
2017-09-27T05:24:31.807Z,31.97
2017-09-27T05:27:00.903Z,28.17
2017-09-27T05:29:30.366Z,30.20
2017-09-27T05:32:00.699Z,28.80
2017-09-27T05:34:31.251Z,25.73
2017-09-27T05:37:00.307Z,29.73
2017-09-27T05:39:29.379Z,22.53
2017-09-27T05:41:58.460Z,25.63
2017-09-27T05:44:27.517Z,25.30
2017-09-27T05:46:56.823Z,20.40
2017-09-27T05:49:25.865Z,17.53
2017-09-27T05:51:54.927Z,18.33
2017-09-27T05:54:23.985Z,21.70
2017-09-27T05:56:53.040Z,20.63
2017-09-27T05:59:22.109Z,19.00
2017-09-27T06:01:51.159Z,24.40
2017-09-27T06:04:20.229Z,17.80
2017-09-27T06:06:49.285Z,17.60
2017-09-27T06:09:18.369Z,18.23
2017-09-27T06:11:47.417Z,21.07
2017-09-27T06:14:16.462Z,16.73
2017-09-27T06:16:45.519Z,21.67
2017-09-27T06:19:14.656Z,18.57
2017-09-27T06:21:43.682Z,18.40
2017-09-27T06:24:12.780Z,20.00
2017-09-27T06:26:41.862Z,19.63
2017-09-27T06:29:10.919Z,19.30
2017-09-27T06:31:39.963Z,18.57
2017-09-27T06:34:09.047Z,20.87
2017-09-27T06:36:38.106Z,18.17
2017-09-27T06:39:08.247Z,15.80
2017-09-27T06:41:37.296Z,16.27
2017-09-27T06:44:06.394Z,17.73
2017-09-27T06:46:35.478Z,15.73
2017-09-27T06:49:04.527Z,15.57
2017-09-27T06:51:33.579Z,16.20
2017-09-27T06:54:02.630Z,15.40
2017-09-27T06:56:31.703Z,15.60
2017-09-27T06:59:00.751Z,15.40
2017-09-27T07:01:29.817Z,13.33
2017-09-27T07:03:58.878Z,15.23
2017-09-27T07:06:27.939Z,13.03
2017-09-27T07:08:56.987Z,13.43
2017-09-27T07:11:26.037Z,13.10
2017-09-27T07:13:55.095Z,14.37
2017-09-27T07:16:24.183Z,14.50
2017-09-27T07:18:53.243Z,13.93
2017-09-27T07:21:22.286Z,13.40
2017-09-27T07:23:51.354Z,12.93
2017-09-27T07:26:20.406Z,14.60
2017-09-27T07:28:49.463Z,13.63
2017-09-27T07:31:18.510Z,13.93
2017-09-27T07:33:47.619Z,14.73
2017-09-27T07:36:16.689Z,14.47
2017-09-27T07:38:45.813Z,14.90
2017-09-27T07:41:14.877Z,15.30
2017-09-27T07:43:43.931Z,15.20
2017-09-27T07:46:12.997Z,15.10
2017-09-27T07:48:42.052Z,12.07
2017-09-27T07:51:11.183Z,13.07
2017-09-27T07:53:40.623Z,12.50
2017-09-27T07:56:10.570Z,11.93
2017-09-27T07:58:39.969Z,12.63
2017-09-27T08:01:09.045Z,12.60
2017-09-27T08:03:40.236Z,12.03
2017-09-27T08:06:09.851Z,12.83
2017-09-27T08:08:38.932Z,10.07
2017-09-27T08:11:08.226Z,10.90
2017-09-27T08:13:38.268Z,11.57
2017-09-27T08:16:07.327Z,12.20
2017-09-27T08:18:40.150Z,12.30
2017-09-27T08:21:10.416Z,13.73
2017-09-27T08:23:39.475Z,11.60
2017-09-27T08:26:08.630Z,12.60
2017-09-27T08:28:38.562Z,12.97
2017-09-27T08:31:07.654Z,11.83
2017-09-27T08:33:40.027Z,11.47
2017-09-27T08:36:09.832Z,15.13
2017-09-27T08:38:39.915Z,13.50
2017-09-27T08:41:09.681Z,14.60
2017-09-27T08:43:38.721Z,14.33
2017-09-27T08:46:07.791Z,13.37
2017-09-27T08:48:40.022Z,13.00
2017-09-27T08:51:09.703Z,14.50
2017-09-27T08:53:38.746Z,13.53
2017-09-27T08:56:10.162Z,14.10
2017-09-27T08:58:39.261Z,13.10
2017-09-27T09:01:10.641Z,15.10
2017-09-27T09:03:39.950Z,14.77
2017-09-27T09:06:08.979Z,16.53
2017-09-27T09:08:40.966Z,13.57
2017-09-27T09:11:10.953Z,12.50
2017-09-27T09:13:39.994Z,12.17
2017-09-27T09:16:11.606Z,12.40
2017-09-27T09:18:42.947Z,12.67
2017-09-27T09:21:14.586Z,13.03
2017-09-27T09:23:44.409Z,12.37
2017-09-27T09:26:13.459Z,12.10
2017-09-27T09:28:44.055Z,12.37
2017-09-27T09:31:13.871Z,11.83
2017-09-27T09:33:42.955Z,11.50
2017-09-27T09:36:13.181Z,11.07
2017-09-27T09:38:43.234Z,10.90
2017-09-27T09:41:12.282Z,12.17
2017-09-27T09:43:42.341Z,11.37
2017-09-27T09:46:12.144Z,12.43
2017-09-27T09:48:41.203Z,11.20
2017-09-27T09:51:11.540Z,12.23
2017-09-27T09:53:41.295Z,11.30
2017-09-27T09:56:11.767Z,11.87
2017-09-27T09:58:41.910Z,11.13
2017-09-27T10:01:11.652Z,9.90
2017-09-27T10:03:40.670Z,10.93
2017-09-27T10:06:10.978Z,11.43
2017-09-27T10:08:40.027Z,10.37
2017-09-27T10:11:11.442Z,10.67
2017-09-27T10:13:41.433Z,13.20
2017-09-27T10:16:10.505Z,11.30
2017-09-27T10:18:43.071Z,11.00
2017-09-27T10:21:12.960Z,11.60
2017-09-27T10:23:42.014Z,11.83
2017-09-27T10:26:11.102Z,12.63
2017-09-27T10:28:44.659Z,12.13
2017-09-27T10:31:14.722Z,13.20
2017-09-27T10:33:44.788Z,11.70
2017-09-27T10:36:14.133Z,11.90
2017-09-27T10:38:43.170Z,11.00
2017-09-27T10:41:13.111Z,13.07
2017-09-27T10:43:42.210Z,12.07
2017-09-27T10:46:13.839Z,12.37
2017-09-27T10:48:43.792Z,13.03
2017-09-27T10:51:12.826Z,15.23
2017-09-27T10:53:43.673Z,12.23
2017-09-27T10:56:13.406Z,12.43
2017-09-27T10:58:42.465Z,12.00
2017-09-27T11:01:14.483Z,11.13
2017-09-27T11:03:43.535Z,11.73
2017-09-27T11:06:13.431Z,11.50
2017-09-27T11:08:42.617Z,10.57
2017-09-27T11:11:14.279Z,11.83
2017-09-27T11:13:43.702Z,11.33
2017-09-27T11:16:12.930Z,12.70
2017-09-27T11:18:43.860Z,12.43
2017-09-27T11:21:14.176Z,11.80
2017-09-27T11:23:43.194Z,13.17
2017-09-27T11:26:13.947Z,12.20
2017-09-27T11:28:44.732Z,11.27
2017-09-27T11:31:13.791Z,12.00
2017-09-27T11:33:44.683Z,13.67
2017-09-27T11:36:14.076Z,12.47
2017-09-27T11:38:43.204Z,12.00
2017-09-27T11:41:14.021Z,12.27
2017-09-27T11:43:43.055Z,11.50
2017-09-27T11:46:13.439Z,11.97
2017-09-27T11:48:43.231Z,12.37
2017-09-27T11:51:12.307Z,12.23
2017-09-27T11:53:43.047Z,12.40
2017-09-27T11:56:13.247Z,13.03
2017-09-27T11:58:42.405Z,12.27
2017-09-27T12:01:12.371Z,12.43
2017-09-27T12:03:42.222Z,13.30
2017-09-27T12:06:11.419Z,11.47
2017-09-27T12:08:42.596Z,12.47
2017-09-27T12:11:12.490Z,11.20
2017-09-27T12:13:41.711Z,11.70
2017-09-27T12:16:12.202Z,10.40
2017-09-27T12:18:41.365Z,10.30
2017-09-27T12:21:10.430Z,9.40
2017-09-27T12:23:42.307Z,9.10
2017-09-27T12:26:13.633Z,10.37
2017-09-27T12:28:43.582Z,10.73
2017-09-27T12:31:12.900Z,11.00
2017-09-27T12:33:42.663Z,8.07
2017-09-27T12:36:11.718Z,8.17
2017-09-27T12:38:43.618Z,9.53
2017-09-27T12:41:13.154Z,10.10
2017-09-27T12:43:42.199Z,9.37
2017-09-27T12:46:12.902Z,8.60
2017-09-27T12:48:43.123Z,10.30
2017-09-27T12:51:12.533Z,10.27
2017-09-27T12:53:43.146Z,8.70
2017-09-27T12:56:15.684Z,9.87
2017-09-27T12:58:44.697Z,8.30
2017-09-27T13:01:16.075Z,8.33
2017-09-27T13:03:45.200Z,9.20
2017-09-27T13:06:15.056Z,9.77
2017-09-27T13:08:44.705Z,10.60
2017-09-27T13:11:13.758Z,10.23
2017-09-27T13:13:45.011Z,9.33
2017-09-27T13:16:14.691Z,9.60
2017-09-27T13:18:43.727Z,9.83
2017-09-27T13:21:14.211Z,9.47
2017-09-27T13:23:43.910Z,9.00
2017-09-27T13:26:13.054Z,9.00
2017-09-27T13:28:43.667Z,9.10
2017-09-27T13:31:13.564Z,8.37
2017-09-27T13:33:42.599Z,9.27
2017-09-27T13:36:13.248Z,9.20
2017-09-27T13:38:43.094Z,8.97
2017-09-27T13:41:12.147Z,7.77
2017-09-27T13:43:42.876Z,8.30
2017-09-27T13:46:12.846Z,7.60
2017-09-27T13:48:41.892Z,33.03
2017-09-27T13:51:12.530Z,9.20
2017-09-27T13:53:42.230Z,8.43
2017-09-27T13:56:11.257Z,8.47
2017-09-27T13:58:44.185Z,8.47
2017-09-27T14:01:13.996Z,9.40
2017-09-27T14:03:43.019Z,7.87
2017-09-27T14:06:12.058Z,7.30
2017-09-27T14:08:43.211Z,6.63
2017-09-27T14:11:12.930Z,7.57
2017-09-27T14:13:41.976Z,7.17
2017-09-27T14:16:11.548Z,6.87
2017-09-27T14:18:40.616Z,6.40
2017-09-27T14:21:11.923Z,7.10
2017-09-27T14:23:41.585Z,8.43
2017-09-27T14:26:10.801Z,6.80
2017-09-27T14:28:43.699Z,5.60
2017-09-27T14:31:13.421Z,5.63
2017-09-27T14:33:42.551Z,6.23
2017-09-27T14:36:12.769Z,10.57
2017-09-27T14:38:42.631Z,19.60
2017-09-27T14:41:11.679Z,8.27
2017-09-27T14:43:42.364Z,7.63
2017-09-27T14:46:12.035Z,7.07
2017-09-27T14:48:41.096Z,6.60
2017-09-27T14:51:12.176Z,7.90
2017-09-27T14:53:42.237Z,7.07
2017-09-27T14:56:11.259Z,9.73
2017-09-27T14:58:42.021Z,8.40
2017-09-27T15:01:11.044Z,6.77
2017-09-27T15:03:42.057Z,7.73
2017-09-27T15:06:11.682Z,7.13
2017-09-27T15:08:40.703Z,6.83
2017-09-27T15:11:11.498Z,6.90
2017-09-27T15:13:41.808Z,11.40
2017-09-27T15:16:10.846Z,5.70
2017-09-27T15:18:43.294Z,7.33
2017-09-27T15:21:13.399Z,6.57
2017-09-27T15:23:43.443Z,7.10
2017-09-27T15:26:13.739Z,7.50
2017-09-27T15:28:43.440Z,5.83
2017-09-27T15:31:12.593Z,7.10
2017-09-27T15:33:46.457Z,6.30
2017-09-27T15:36:16.189Z,11.83
2017-09-27T15:38:45.234Z,5.53
2017-09-27T15:41:15.927Z,5.83
2017-09-27T15:43:46.084Z,7.40
2017-09-27T15:46:15.139Z,6.10
2017-09-27T15:48:46.482Z,6.77
2017-09-27T15:51:15.966Z,6.00
2017-09-27T15:53:45.116Z,6.57
2017-09-27T15:56:16.039Z,6.67
2017-09-27T15:58:45.066Z,6.83
2017-09-27T16:01:15.113Z,6.27
2017-09-27T16:03:44.234Z,6.20
2017-09-27T16:06:14.553Z,5.43
2017-09-27T16:08:44.711Z,7.20
2017-09-27T16:11:13.755Z,5.80
2017-09-27T16:13:44.358Z,9.93
2017-09-27T16:16:15.336Z,7.50
2017-09-27T16:18:44.378Z,7.23
2017-09-27T16:21:14.524Z,16.90
2017-09-27T16:23:44.595Z,10.70
2017-09-27T16:26:13.826Z,6.60
2017-09-27T16:28:44.315Z,6.97
2017-09-27T16:31:13.429Z,10.43
2017-09-27T16:33:42.517Z,8.43
2017-09-27T16:36:12.197Z,7.80
2017-09-27T16:38:41.312Z,10.70
2017-09-27T16:41:10.378Z,8.63
2017-09-27T16:43:42.408Z,7.67
2017-09-27T16:46:12.326Z,7.20
2017-09-27T16:48:41.417Z,10.60
2017-09-27T16:51:11.753Z,8.00
2017-09-27T16:53:41.545Z,9.40
2017-09-27T16:56:10.673Z,8.10
2017-09-27T16:58:41.186Z,7.20
2017-09-27T17:01:11.109Z,11.10
2017-09-27T17:03:40.193Z,9.03
2017-09-27T17:06:10.999Z,10.90
2017-09-27T17:08:41.259Z,9.97
2017-09-27T17:11:10.394Z,8.73
2017-09-27T17:13:41.166Z,10.63
2017-09-27T17:16:11.297Z,8.40
2017-09-27T17:18:40.347Z,10.33
2017-09-27T17:21:11.021Z,16.63
2017-09-27T17:23:40.798Z,11.93
2017-09-27T17:26:09.823Z,12.30
2017-09-27T17:28:40.728Z,8.27
2017-09-27T17:31:11.759Z,10.77
2017-09-27T17:33:41.381Z,7.60
2017-09-27T17:36:13.780Z,8.70
2017-09-27T17:38:45.404Z,8.73
2017-09-27T17:41:14.979Z,10.30
2017-09-27T17:43:44.510Z,11.07
2017-09-27T17:46:13.536Z,9.67
2017-09-27T17:48:43.452Z,7.37
2017-09-27T17:51:12.474Z,7.07
2017-09-27T17:53:41.512Z,10.47
2017-09-27T17:56:12.996Z,12.63
2017-09-27T17:58:43.038Z,9.60
2017-09-27T18:01:13.218Z,10.30
2017-09-27T18:03:42.311Z,10.77
2017-09-27T18:06:17.626Z,9.30
2017-09-27T18:17:40.544Z,10.25
2017-09-27T18:20:09.639Z,10.30
2017-09-27T18:22:41.323Z,17.77
2017-09-27T18:25:10.678Z,10.70
2017-09-27T18:27:40.758Z,9.27
2017-09-27T18:30:09.891Z,13.23
2017-09-27T18:32:39.915Z,11.70
2017-09-27T18:35:09.048Z,10.00
2017-09-27T18:37:38.108Z,10.20
2017-09-27T18:40:07.181Z,12.63
2017-09-27T18:42:37.121Z,10.07
2017-09-27T18:45:07.183Z,9.50
2017-09-27T18:47:37.223Z,13.57
2017-09-27T18:50:06.295Z,11.37
2017-09-27T18:52:35.429Z,10.33
2017-09-27T18:55:04.476Z,10.97
2017-09-27T18:57:33.547Z,14.10
2017-09-27T19:00:02.635Z,13.10
2017-09-27T19:02:31.726Z,11.33
2017-09-27T19:05:01.748Z,11.37
2017-09-27T19:07:30.842Z,11.90
2017-09-27T19:09:59.890Z,16.93
2017-09-27T19:12:29.914Z,14.67
2017-09-27T19:15:00.056Z,11.30
2017-09-27T19:17:32.795Z,12.50
2017-09-27T19:20:02.160Z,13.20
2017-09-27T19:22:31.540Z,18.80
2017-09-27T19:25:03.471Z,12.80
2017-09-27T19:27:32.614Z,17.77
2017-09-27T19:30:01.655Z,13.90
2017-09-27T19:32:31.784Z,14.73
2017-09-27T19:35:02.518Z,12.03
2017-09-27T19:37:32.650Z,10.87
2017-09-27T19:40:01.832Z,11.50
2017-09-27T19:42:30.923Z,14.93
2017-09-27T19:44:59.971Z,11.03
2017-09-27T19:47:29.646Z,11.60
2017-09-27T19:49:58.746Z,10.53
2017-09-27T19:52:29.418Z,14.80
2017-09-27T19:54:58.495Z,13.03
2017-09-27T19:57:27.694Z,11.53
2017-09-27T19:59:56.779Z,11.13
2017-09-27T20:02:25.855Z,12.97
2017-09-27T20:04:55.583Z,11.20
2017-09-27T20:07:24.690Z,13.90
2017-09-27T20:09:55.555Z,12.90
2017-09-27T20:12:24.634Z,11.77
2017-09-27T20:14:53.686Z,12.50
2017-09-27T20:17:22.831Z,12.73
2017-09-27T20:19:51.891Z,12.23
2017-09-27T20:22:20.947Z,18.63
2017-09-27T20:24:49.991Z,13.10
2017-09-27T20:27:19.175Z,13.17
2017-09-27T20:29:48.215Z,16.07
2017-09-27T20:32:17.273Z,13.30
2017-09-27T20:34:46.355Z,14.70
2017-09-27T20:37:15.443Z,9.30
2017-09-27T20:39:44.489Z,10.70
2017-09-27T20:42:13.653Z,7.90
2017-09-27T20:44:43.692Z,8.90
2017-09-27T20:47:12.740Z,8.93
2017-09-27T20:49:41.798Z,9.23
2017-09-27T20:52:10.834Z,10.53
2017-09-27T20:54:39.906Z,8.63
2017-09-27T20:57:08.957Z,8.83
2017-09-27T20:59:37.995Z,8.67
2017-09-27T21:02:07.074Z,10.10
2017-09-27T21:07:15.095Z,10.97
2017-09-27T21:09:44.170Z,11.23
2017-09-27T21:12:13.451Z,11.33
2017-09-27T21:14:42.482Z,10.97
2017-09-27T21:17:11.535Z,12.23
2017-09-27T21:19:40.604Z,14.67
2017-09-27T21:22:09.642Z,13.10
2017-09-27T21:24:38.679Z,17.23
2017-09-27T21:27:07.710Z,33.03
2017-09-27T21:29:36.769Z,19.10
2017-09-27T21:32:06.113Z,16.03
2017-09-27T21:34:35.167Z,14.40
2017-09-27T21:37:04.468Z,14.27
2017-09-27T21:39:33.495Z,14.63
2017-09-27T21:42:02.541Z,16.40
2017-09-27T21:44:31.632Z,12.83
2017-09-27T21:47:00.681Z,17.77
2017-09-27T21:49:29.718Z,17.87
2017-09-27T21:51:59.697Z,12.53
2017-09-27T21:54:29.638Z,13.97
2017-09-27T21:56:58.682Z,12.87
2017-09-27T21:59:27.747Z,12.67
2017-09-27T22:01:56.859Z,19.20
2017-09-27T22:04:26.571Z,14.33
2017-09-27T22:06:56.950Z,18.80
2017-09-27T22:09:26.921Z,14.87
2017-09-27T22:11:56.042Z,15.47
2017-09-27T22:14:27.726Z,19.17
2017-09-27T22:16:58.261Z,23.43
2017-09-27T22:19:27.741Z,15.77
2017-09-27T22:21:56.875Z,19.77
2017-09-27T22:24:26.124Z,18.50
2017-09-27T22:26:55.520Z,17.00
2017-09-27T22:29:25.210Z,11.00
2017-09-27T22:31:54.263Z,8.67
2017-09-27T22:34:24.160Z,11.73
2017-09-27T22:36:53.188Z,9.77
2017-09-27T22:39:24.931Z,11.70
2017-09-27T22:41:54.398Z,11.27
2017-09-27T22:44:23.569Z,13.17
2017-09-27T22:46:54.154Z,12.10
2017-09-27T22:49:23.672Z,13.70
2017-09-27T22:51:56.169Z,12.97
2017-09-27T22:54:27.574Z,13.73
2017-09-27T22:56:57.304Z,16.57
2017-09-27T22:59:26.342Z,12.10
2017-09-27T23:01:56.933Z,15.93
2017-09-27T23:04:26.030Z,14.00
2017-09-27T23:06:56.643Z,14.30
2017-09-27T23:09:26.246Z,14.30
2017-09-27T23:11:55.267Z,13.50
2017-09-27T23:14:25.226Z,17.00
2017-09-27T23:16:54.295Z,16.73
2017-09-27T23:19:24.346Z,18.03
2017-09-27T23:21:55.639Z,19.50
2017-09-27T23:24:24.705Z,18.80
2017-09-27T23:26:53.746Z,21.23
2017-09-27T23:29:22.802Z,23.87
2017-09-27T23:31:51.887Z,32.53
2017-09-27T23:34:20.922Z,28.23
2017-09-27T23:36:49.999Z,32.67
2017-09-27T23:39:20.071Z,28.20
2017-09-27T23:41:49.110Z,34.70
2017-09-27T23:44:18.158Z,29.07
2017-09-27T23:46:47.294Z,25.10
2017-09-27T23:49:17.231Z,23.57
2017-09-27T23:51:46.286Z,16.97
2017-09-27T23:54:15.707Z,15.07
2017-09-27T23:56:44.758Z,17.93
2017-09-27T23:59:13.790Z,18.07
